Time;durP1;ratioP1;P1;durP2;ratioP2;P2;SDS_P1;SDS_P2;PMS_P1;PMS_P2;Temp;Humidity;BMP_temperature;BMP_pressure;BME280_temperature;BME280_humidity;BME280_pressure;Samples;Min_cycle;Max_cycle;Signal;HPM_P1;HPM_P2
2024/01/20 00:00:07;;;;;;;30.07;17.07;;;;;-5.90;94744.00;;;;7401113;19;20129;-79
2024/01/20 00:02:43;;;;;;;35.73;18.27;;;;;-6.10;94747.00;;;;7398366;19;20144;-81
2024/01/20 00:05:17;;;;;;;30.03;16.03;;;;;-6.00;94743.00;;;;7398574;19;20612;-78
2024/01/20 00:07:51;;;;;;;35.33;16.97;;;;;-6.10;94739.00;;;;7397991;19;20141;-80
2024/01/20 00:10:25;;;;;;;38.20;20.13;;;;;-6.10;94729.00;;;;7409425;19;20141;-79
2024/01/20 00:12:53;;;;;;;40.17;18.30;;;;;-6.10;94734.00;;;;7408366;19;20137;-79
2024/01/20 00:15:27;;;;;;;32.50;18.30;;;;;-6.20;94743.00;;;;7408384;19;20465;-79
2024/01/20 00:17:55;;;;;;;32.60;16.87;;;;;-6.10;94731.00;;;;7410349;19;20491;-80
2024/01/20 00:20:30;;;;;;;36.00;19.07;;;;;-5.90;94739.00;;;;7409627;19;20141;-79
2024/01/20 00:23:05;;;;;;;45.40;20.27;;;;;-6.10;94726.00;;;;7408198;19;20601;-80
2024/01/20 00:25:41;;;;;;;51.27;20.23;;;;;-6.20;94737.00;;;;7409327;19;20145;-79
2024/01/20 00:28:08;;;;;;;86.07;30.90;;;;;-6.10;94740.00;;;;7406759;19;20133;-79
2024/01/20 00:30:43;;;;;;;40.63;19.60;;;;;-6.00;94736.00;;;;7408986;19;20620;-79
2024/01/20 00:33:11;;;;;;;44.03;22.63;;;;;-5.90;94750.00;;;;7408805;19;20133;-77
2024/01/20 00:35:45;;;;;;;39.80;21.00;;;;;-5.80;94740.00;;;;7407905;19;20608;-80
2024/01/20 00:38:19;;;;;;;46.03;22.70;;;;;-5.80;94743.00;;;;7407281;19;20160;-82
2024/01/20 00:40:54;;;;;;;41.60;22.03;;;;;-5.70;94750.00;;;;7405423;19;20140;-80
2024/01/20 00:43:28;;;;;;;57.00;27.60;;;;;-5.70;94760.00;;;;7405910;19;20175;-80
2024/01/20 00:46:02;;;;;;;58.40;28.93;;;;;-5.80;94758.00;;;;7409729;19;20125;-79
2024/01/20 00:48:36;;;;;;;38.10;20.93;;;;;-5.70;94750.00;;;;7408269;19;20144;-79
2024/01/20 00:51:16;;;;;;;43.13;21.93;;;;;-5.70;94750.00;;;;7409266;19;20129;-79
2024/01/20 00:53:51;;;;;;;50.57;25.37;;;;;-5.80;94753.00;;;;7405009;19;20133;-78
2024/01/20 00:56:25;;;;;;;83.73;38.43;;;;;-5.90;94751.00;;;;7404741;19;20630;-79
2024/01/20 00:58:59;;;;;;;97.00;39.90;;;;;-5.60;94743.00;;;;7405301;19;20140;-79
2024/01/20 01:01:27;;;;;;;111.87;47.80;;;;;-5.90;94749.00;;;;7405121;19;20622;-79
2024/01/20 01:04:01;;;;;;;53.50;26.63;;;;;-5.90;94752.00;;;;7405517;19;20147;-81
2024/01/20 01:06:29;;;;;;;42.63;24.27;;;;;-6.00;94751.00;;;;7405712;19;20145;-79
2024/01/20 01:09:03;;;;;;;44.87;24.70;;;;;-6.00;94761.00;;;;7407346;19;20132;-78
2024/01/20 01:11:37;;;;;;;44.13;22.77;;;;;-6.10;94760.00;;;;7404669;19;20149;-78
2024/01/20 01:14:11;;;;;;;36.10;19.47;;;;;-6.20;94770.00;;;;7411011;19;20136;-79
2024/01/20 01:16:39;;;;;;;53.27;25.77;;;;;-6.30;94759.00;;;;7407731;19;20148;-77
2024/01/20 01:19:07;;;;;;;39.53;20.03;;;;;-6.40;94760.00;;;;7405668;19;20139;-78
2024/01/20 01:21:41;;;;;;;46.70;24.33;;;;;-6.20;94758.00;;;;7407754;19;20129;-78
2024/01/20 01:24:09;;;;;;;41.27;19.90;;;;;-6.30;94767.00;;;;7407836;19;20137;-79
2024/01/20 01:26:43;;;;;;;39.10;19.63;;;;;-6.40;94761.00;;;;7411160;19;20140;-77
2024/01/20 01:29:10;;;;;;;41.57;20.23;;;;;-6.40;94767.00;;;;7410952;19;20612;-78
2024/01/20 01:31:45;;;;;;;32.53;18.47;;;;;-6.60;94767.00;;;;7410955;19;20135;-80
2024/01/20 01:34:19;;;;;;;40.23;20.13;;;;;-6.60;94767.00;;;;7410704;19;20137;-78
2024/01/20 01:36:53;;;;;;;34.67;18.80;;;;;-6.50;94771.00;;;;7411983;19;20149;-79
2024/01/20 01:39:27;;;;;;;39.10;19.60;;;;;-6.50;94783.00;;;;7406740;19;20611;-78
2024/01/20 01:41:55;;;;;;;37.37;19.27;;;;;-6.50;94779.00;;;;7409620;19;20204;-79
2024/01/20 01:44:22;;;;;;;43.80;22.43;;;;;-6.40;94776.00;;;;7406882;19;20196;-79
2024/01/20 01:46:57;;;;;;;47.10;21.43;;;;;-6.50;94775.00;;;;7409974;19;20176;-78
2024/01/20 01:49:26;;;;;;;39.73;20.37;;;;;-6.60;94783.00;;;;7408706;19;20164;-78
2024/01/20 01:52:00;;;;;;;38.87;19.83;;;;;-6.60;94776.00;;;;7408597;19;20168;-79
2024/01/20 01:54:28;;;;;;;39.73;19.10;;;;;-6.50;94768.00;;;;7406555;19;20144;-79
2024/01/20 01:57:04;;;;;;;35.83;18.63;;;;;-6.50;94773.00;;;;7409755;19;20129;-79
2024/01/20 01:59:41;;;;;;;38.70;19.83;;;;;-6.60;94777.00;;;;7410316;19;20133;-79
2024/01/20 02:02:09;;;;;;;36.33;18.83;;;;;-6.80;94771.00;;;;7407218;19;20143;-77
2024/01/20 02:04:37;;;;;;;36.27;18.97;;;;;-6.70;94764.00;;;;7403053;19;20149;-76
2024/01/20 02:07:15;;;;;;;36.73;18.17;;;;;-6.80;94768.00;;;;7402047;19;20576;-76
2024/01/20 02:09:49;;;;;;;36.10;18.67;;;;;-6.70;94772.00;;;;7401404;19;20469;-77
2024/01/20 02:12:18;;;;;;;41.60;19.83;;;;;-6.60;94766.00;;;;7400236;19;20140;-75
2024/01/20 02:14:52;;;;;;;39.20;20.67;;;;;-6.80;94762.00;;;;7401230;19;20162;-77
2024/01/20 02:17:20;;;;;;;37.87;19.20;;;;;-6.80;94770.00;;;;7400903;19;20137;-77
2024/01/20 02:19:55;;;;;;;36.67;18.87;;;;;-6.80;94780.00;;;;7401621;19;20457;-77
2024/01/20 02:22:29;;;;;;;36.97;19.63;;;;;-6.70;94784.00;;;;7401522;19;20169;-76
2024/01/20 02:25:03;;;;;;;41.47;18.93;;;;;-6.70;94785.00;;;;7402911;19;20536;-77
2024/01/20 02:27:38;;;;;;;38.70;18.40;;;;;-6.90;94773.00;;;;7398217;19;20148;-78
2024/01/20 02:30:12;;;;;;;43.10;19.60;;;;;-6.80;94790.00;;;;7402061;19;20629;-76
2024/01/20 02:32:40;;;;;;;38.23;18.53;;;;;-6.70;94783.00;;;;7399621;19;20145;-75
2024/01/20 02:35:16;;;;;;;41.57;18.87;;;;;-6.80;94788.00;;;;7400495;19;20167;-76
2024/01/20 02:37:50;;;;;;;38.40;18.77;;;;;-6.80;94786.00;;;;7400527;19;20619;-77
2024/01/20 02:40:24;;;;;;;37.90;17.83;;;;;-6.80;94791.00;;;;7403199;19;20133;-76
2024/01/20 02:42:59;;;;;;;39.50;18.03;;;;;-6.90;94794.00;;;;7399424;19;20537;-76
2024/01/20 02:45:33;;;;;;;41.10;19.03;;;;;-7.00;94797.00;;;;7400839;19;20223;-76
2024/01/20 02:48:09;;;;;;;36.37;18.03;;;;;-7.30;94788.00;;;;7400655;19;20144;-77
2024/01/20 02:50:51;;;;;;;36.13;18.80;;;;;-7.10;94791.00;;;;7400347;19;20140;-76
2024/01/20 02:53:19;;;;;;;36.97;17.83;;;;;-7.10;94787.00;;;;7400418;19;20149;-76
2024/01/20 02:55:53;;;;;;;35.57;19.77;;;;;-7.10;94792.00;;;;7400727;19;20137;-76
2024/01/20 02:58:22;;;;;;;37.30;19.33;;;;;-7.30;94785.00;;;;7399112;19;20124;-76
2024/01/20 03:00:58;;;;;;;36.37;18.73;;;;;-7.30;94783.00;;;;7399287;19;20160;-76
2024/01/20 03:03:32;;;;;;;37.43;19.23;;;;;-7.30;94780.00;;;;7399051;19;20489;-75
2024/01/20 03:06:06;;;;;;;37.93;18.50;;;;;-7.40;94786.00;;;;7399299;19;20173;-74
2024/01/20 03:08:41;;;;;;;35.53;17.83;;;;;-7.50;94778.00;;;;7397776;19;20230;-76
2024/01/20 03:11:15;;;;;;;36.07;18.13;;;;;-7.50;94788.00;;;;7400100;19;20152;-79
2024/01/20 03:13:50;;;;;;;35.87;19.70;;;;;-7.40;94791.00;;;;7403691;19;20128;-78
2024/01/20 03:16:17;;;;;;;36.43;18.87;;;;;-7.50;94790.00;;;;7404032;19;20141;-78
2024/01/20 03:18:45;;;;;;;41.87;18.60;;;;;-7.40;94791.00;;;;7402629;19;20546;-79
2024/01/20 03:21:20;;;;;;;38.50;19.80;;;;;-7.50;94800.00;;;;7403201;19;20168;-79
2024/01/20 03:23:47;;;;;;;36.53;19.10;;;;;-7.50;94794.00;;;;7402860;19;20476;-78
2024/01/20 03:26:22;;;;;;;42.20;19.87;;;;;-7.50;94791.00;;;;7403084;19;20604;-77
2024/01/20 03:28:50;;;;;;;39.63;19.97;;;;;-7.70;94791.00;;;;7399872;19;20137;-79
2024/01/20 03:31:25;;;;;;;40.97;20.17;;;;;-7.90;94797.00;;;;7401132;19;20592;-79
2024/01/20 03:33:59;;;;;;;38.80;19.80;;;;;-7.80;94799.00;;;;7404082;19;20139;-79
2024/01/20 03:36:33;;;;;;;43.87;19.63;;;;;-7.60;94809.00;;;;7399530;19;20120;-79
2024/01/20 03:39:07;;;;;;;40.07;18.60;;;;;-7.80;94815.00;;;;7401019;19;20203;-79
2024/01/20 03:41:43;;;;;;;40.17;20.00;;;;;-7.60;94822.00;;;;7401518;19;20596;-78
2024/01/20 03:44:18;;;;;;;36.57;19.07;;;;;-7.60;94820.00;;;;7403114;19;20482;-79
2024/01/20 03:46:45;;;;;;;41.23;20.00;;;;;-7.50;94826.00;;;;7400913;19;20133;-78
2024/01/20 03:49:27;;;;;;;39.27;20.50;;;;;-7.40;94816.00;;;;7399933;19;20167;-79
2024/01/20 03:52:07;;;;;;;38.30;19.53;;;;;-7.20;94805.00;;;;7404230;19;20129;-78
2024/01/20 03:54:43;;;;;;;40.40;20.40;;;;;-7.30;94818.00;;;;7401611;19;20490;-78
2024/01/20 03:57:11;;;;;;;37.33;20.07;;;;;-7.40;94819.00;;;;7399493;19;20137;-78
2024/01/20 03:59:45;;;;;;;45.27;21.47;;;;;-7.40;94824.00;;;;7402615;19;20139;-78
2024/01/20 04:02:19;;;;;;;42.23;20.10;;;;;-7.40;94827.00;;;;7401159;19;20203;-78
2024/01/20 04:04:47;;;;;;;39.90;20.77;;;;;-7.50;94813.00;;;;7400763;19;20608;-78
2024/01/20 04:07:22;;;;;;;41.77;20.20;;;;;-7.50;94814.00;;;;7400973;19;20137;-79
2024/01/20 04:09:50;;;;;;;40.60;19.97;;;;;-7.60;94822.00;;;;7399628;19;20172;-79
2024/01/20 04:12:30;;;;;;;37.67;18.83;;;;;-7.70;94820.00;;;;7399152;19;20152;-78
2024/01/20 04:14:58;;;;;;;38.73;19.60;;;;;-7.70;94817.00;;;;7397544;19;20496;-78
2024/01/20 04:17:32;;;;;;;38.13;19.43;;;;;-7.80;94819.00;;;;7398391;19;20615;-78
2024/01/20 04:20:00;;;;;;;36.60;18.27;;;;;-8.10;94817.00;;;;7397559;19;20572;-79
2024/01/20 04:22:35;;;;;;;37.47;18.63;;;;;-8.20;94819.00;;;;7398804;19;20160;-78
2024/01/20 04:25:09;;;;;;;38.17;18.13;;;;;-8.00;94829.00;;;;7397262;19;20628;-78
2024/01/20 04:27:44;;;;;;;35.07;17.33;;;;;-7.80;94823.00;;;;7398385;19;20159;-79
2024/01/20 04:30:18;;;;;;;38.53;18.83;;;;;-7.90;94820.00;;;;7397725;19;20174;-79
2024/01/20 04:32:52;;;;;;;39.23;18.67;;;;;-7.90;94823.00;;;;7397418;19;20151;-78
2024/01/20 04:35:27;;;;;;;38.00;18.83;;;;;-7.90;94821.00;;;;7397023;19;20143;-79
2024/01/20 04:38:01;;;;;;;37.90;19.70;;;;;-8.10;94834.00;;;;7399579;19;20596;-79
2024/01/20 04:40:28;;;;;;;39.23;19.17;;;;;-8.10;94828.00;;;;7397896;19;20143;-79
2024/01/20 04:43:03;;;;;;;38.37;18.37;;;;;-8.00;94835.00;;;;7398894;19;20162;-78
2024/01/20 04:45:31;;;;;;;41.83;19.57;;;;;-8.10;94835.00;;;;7396553;19;20161;-78
2024/01/20 04:48:05;;;;;;;40.47;19.07;;;;;-8.20;94835.00;;;;7396889;19;20187;-79
2024/01/20 04:50:40;;;;;;;42.70;18.63;;;;;-8.20;94828.00;;;;7395611;19;20172;-79
2024/01/20 04:53:21;;;;;;;36.87;18.83;;;;;-8.30;94835.00;;;;7397393;19;20627;-79
2024/01/20 04:55:56;;;;;;;34.53;17.43;;;;;-8.30;94835.00;;;;7403063;19;20168;-78
2024/01/20 04:58:30;;;;;;;36.90;18.83;;;;;-8.20;94830.00;;;;7406048;19;20131;-78
2024/01/20 05:00:58;;;;;;;34.53;16.60;;;;;-8.50;94827.00;;;;7403956;19;20499;-80
2024/01/20 05:03:32;;;;;;;32.87;17.47;;;;;-8.40;94849.00;;;;7406259;19;20164;-79
2024/01/20 05:06:00;;;;;;;40.63;17.77;;;;;-8.20;94853.00;;;;7403835;19;20142;-79
2024/01/20 05:08:34;;;;;;;32.07;17.67;;;;;-8.20;94846.00;;;;7402676;19;20167;-78
2024/01/20 05:11:08;;;;;;;34.50;17.27;;;;;-8.20;94842.00;;;;7403733;19;20128;-81
2024/01/20 05:13:42;;;;;;;36.07;17.40;;;;;-8.30;94844.00;;;;7404224;19;20149;-78
2024/01/20 05:16:17;;;;;;;35.30;16.53;;;;;-8.50;94848.00;;;;7404493;19;20140;-80
2024/01/20 05:18:45;;;;;;;34.00;16.70;;;;;-8.60;94844.00;;;;7404107;19;20593;-79
2024/01/20 05:21:22;;;;;;;31.40;15.87;;;;;-8.50;94843.00;;;;7402809;19;20155;-79
2024/01/20 05:23:57;;;;;;;31.93;15.77;;;;;-8.60;94844.00;;;;7403271;19;20154;-77
2024/01/20 05:26:31;;;;;;;31.97;15.90;;;;;-8.60;94838.00;;;;7404309;19;20138;-78
2024/01/20 05:29:00;;;;;;;31.03;14.53;;;;;-8.70;94841.00;;;;7403225;19;20500;-79
2024/01/20 05:31:31;;;;;;;31.03;14.60;;;;;-8.60;94842.00;;;;7404278;19;20139;-79
2024/01/20 05:34:05;;;;;;;30.97;14.03;;;;;-8.20;94837.00;;;;7404744;19;20460;-79
2024/01/20 05:36:33;;;;;;;26.63;13.90;;;;;-8.40;94853.00;;;;7402692;19;20203;-79
2024/01/20 05:39:07;;;;;;;25.57;12.73;;;;;-8.50;94841.00;;;;7404962;19;20603;-78
2024/01/20 05:41:50;;;;;;;23.20;11.90;;;;;-8.60;94845.00;;;;7401837;19;20485;-79
2024/01/20 05:44:31;;;;;;;25.43;13.17;;;;;-8.70;94852.00;;;;7403107;19;20525;-79
2024/01/20 05:47:06;;;;;;;22.83;11.73;;;;;-8.60;94858.00;;;;7403425;19;20238;-80
2024/01/20 05:49:46;;;;;;;22.27;12.30;;;;;-8.30;94856.00;;;;7401701;19;20210;-80
2024/01/20 05:52:20;;;;;;;21.33;11.50;;;;;-8.00;94868.00;;;;7403767;19;20139;-80
2024/01/20 05:54:55;;;;;;;25.00;11.53;;;;;-7.90;94858.00;;;;7404616;19;20619;-78
2024/01/20 05:57:23;;;;;;;22.80;11.93;;;;;-7.70;94872.00;;;;7403648;19;20134;-79
2024/01/20 05:59:58;;;;;;;21.93;11.30;;;;;-7.60;94865.00;;;;7399483;19;20643;-78
2024/01/20 06:02:26;;;;;;;22.67;10.97;;;;;-7.50;94870.00;;;;7401811;19;20135;-79
2024/01/20 06:05:00;;;;;;;19.53;10.40;;;;;-7.30;94866.00;;;;7402403;19;20624;-79
2024/01/20 06:07:28;;;;;;;18.60;11.30;;;;;-7.20;94874.00;;;;7400810;19;20145;-79
2024/01/20 06:09:55;;;;;;;20.93;11.40;;;;;-7.10;94878.00;;;;7399644;19;20145;-79
2024/01/20 06:12:30;;;;;;;20.43;10.67;;;;;-7.20;94875.00;;;;7402634;19;20128;-78
2024/01/20 06:14:59;;;;;;;19.57;10.33;;;;;-7.40;94888.00;;;;7402940;19;20137;-80
2024/01/20 06:17:33;;;;;;;19.37;10.73;;;;;-7.40;94890.00;;;;7401462;19;20184;-79
2024/01/20 06:20:01;;;;;;;20.93;9.60;;;;;-7.50;94880.00;;;;7402450;19;20139;-78
2024/01/20 06:22:35;;;;;;;21.97;9.60;;;;;-7.50;94878.00;;;;7387785;19;20124;-77
2024/01/20 06:25:03;;;;;;;18.33;9.53;;;;;-7.30;94882.00;;;;7389743;19;20168;-79
2024/01/20 06:27:37;;;;;;;15.37;9.13;;;;;-7.10;94881.00;;;;7391270;19;20478;-79
2024/01/20 06:30:12;;;;;;;13.47;8.60;;;;;-7.00;94891.00;;;;7390767;19;20144;-77
2024/01/20 06:32:40;;;;;;;13.07;8.07;;;;;-6.90;94893.00;;;;7392173;19;20616;-78
2024/01/20 06:35:09;;;;;;;11.67;6.53;;;;;-6.90;94886.00;;;;7390640;19;20151;-77
2024/01/20 06:37:44;;;;;;;11.50;7.00;;;;;-6.60;94893.00;;;;7392519;19;20464;-78
2024/01/20 06:40:19;;;;;;;10.70;7.00;;;;;-6.80;94886.00;;;;7390228;19;20145;-79
2024/01/20 06:42:47;;;;;;;10.87;6.57;;;;;-6.70;94883.00;;;;7392523;19;20156;-75
2024/01/20 06:45:21;;;;;;;9.27;5.83;;;;;-6.70;94892.00;;;;7390940;19;20136;-76
2024/01/20 06:47:49;;;;;;;12.03;5.97;;;;;-6.60;94895.00;;;;7390272;19;20160;-74
2024/01/20 06:50:30;;;;;;;10.00;5.57;;;;;-6.60;94904.00;;;;7391138;19;20182;-75
2024/01/20 06:52:58;;;;;;;10.27;5.63;;;;;-7.00;94892.00;;;;7391649;19;20145;-77
2024/01/20 06:55:32;;;;;;;7.20;4.97;;;;;-7.00;94908.00;;;;7391297;19;20156;-77
2024/01/20 06:58:06;;;;;;;11.23;5.00;;;;;-7.00;94903.00;;;;7389352;19;20193;-79
2024/01/20 07:00:34;;;;;;;9.43;5.30;;;;;-7.00;94904.00;;;;7390908;19;20152;-75
2024/01/20 07:03:09;;;;;;;8.57;4.60;;;;;-6.90;94913.00;;;;7388726;19;20204;-75
2024/01/20 07:05:38;;;;;;;11.63;5.10;;;;;-6.90;94919.00;;;;7391150;19;20220;-79
2024/01/20 07:08:06;;;;;;;7.83;5.20;;;;;-7.20;94903.00;;;;7391293;19;20613;-75
2024/01/20 07:10:40;;;;;;;8.93;5.50;;;;;-7.30;94918.00;;;;7392162;19;20616;-77
2024/01/20 07:13:09;;;;;;;9.37;5.33;;;;;-7.40;94913.00;;;;7390045;19;20133;-76
2024/01/20 07:15:43;;;;;;;9.10;5.47;;;;;-7.70;94931.00;;;;7390850;19;20168;-76
2024/01/20 07:18:17;;;;;;;7.37;4.60;;;;;-7.80;94923.00;;;;7391350;19;20133;-76
2024/01/20 07:20:52;;;;;;;8.00;4.80;;;;;-7.90;94928.00;;;;7391084;19;20177;-77
2024/01/20 07:23:27;;;;;;;7.57;4.80;;;;;-7.50;94936.00;;;;7390604;19;20620;-79
2024/01/20 07:25:54;;;;;;;8.17;5.20;;;;;-7.30;94934.00;;;;7391840;19;20150;-74
2024/01/20 07:28:29;;;;;;;7.77;5.00;;;;;-7.00;94928.00;;;;7391403;19;20165;-76
2024/01/20 07:31:03;;;;;;;6.97;4.67;;;;;-7.00;94939.00;;;;7389947;19;20132;-75
2024/01/20 07:33:37;;;;;;;7.70;4.43;;;;;-7.00;94940.00;;;;7390003;19;20150;-76
2024/01/20 07:36:05;;;;;;;8.20;5.00;;;;;-7.00;94942.00;;;;7390428;19;20664;-75
2024/01/20 07:38:40;;;;;;;8.43;5.13;;;;;-6.80;94933.00;;;;7387560;19;20615;-76
2024/01/20 07:41:08;;;;;;;9.10;5.40;;;;;-6.50;94939.00;;;;7389416;19;20605;-77
2024/01/20 07:43:42;;;;;;;6.93;4.20;;;;;-6.40;94950.00;;;;7390077;19;20617;-75
2024/01/20 07:46:10;;;;;;;8.97;4.83;;;;;-6.40;94945.00;;;;7388253;19;20168;-75
2024/01/20 07:48:44;;;;;;;10.10;5.10;;;;;-6.50;94955.00;;;;7390923;19;20148;-76
2024/01/20 07:51:18;;;;;;;7.73;5.33;;;;;-6.40;94955.00;;;;7389664;19;20153;-79
2024/01/20 07:53:54;;;;;;;6.90;4.50;;;;;-6.10;94957.00;;;;7391395;19;20863;-78
2024/01/20 07:56:22;;;;;;;8.03;4.67;;;;;-5.10;94951.00;;;;7391367;19;20220;-79
2024/01/20 07:58:56;;;;;;;8.03;5.27;;;;;-4.50;94941.00;;;;7390013;19;20165;-80
2024/01/20 08:01:24;;;;;;;7.43;4.37;;;;;-4.10;94941.00;;;;7388128;19;20488;-80
2024/01/20 08:03:58;;;;;;;7.00;4.63;;;;;-3.50;94950.00;;;;7389761;19;20125;-80
2024/01/20 08:06:27;;;;;;;5.27;3.60;;;;;-3.10;94952.00;;;;7387679;19;20199;-79
2024/01/20 08:09:01;;;;;;;5.40;3.87;;;;;-3.20;94951.00;;;;7387815;19;20166;-79
2024/01/20 08:11:31;;;;;;;6.10;3.70;;;;;-2.90;94949.00;;;;7386408;19;20597;-80
2024/01/20 08:14:05;;;;;;;5.30;3.77;;;;;-2.60;94940.00;;;;7387694;19;20231;-79
2024/01/20 08:16:40;;;;;;;5.43;3.87;;;;;-2.20;94958.00;;;;7386754;19;20152;-79
2024/01/20 08:19:14;;;;;;;4.83;3.67;;;;;-1.90;94950.00;;;;7386092;19;20497;-82
2024/01/20 08:21:48;;;;;;;5.20;3.70;;;;;-1.90;94955.00;;;;7386136;19;20158;-81
2024/01/20 08:24:25;;;;;;;5.30;3.53;;;;;-1.50;94962.00;;;;7387577;19;20144;-81
2024/01/20 08:26:59;;;;;;;5.83;3.67;;;;;-1.30;94964.00;;;;7388052;19;20612;-80
2024/01/20 08:29:29;;;;;;;6.83;3.63;;;;;-1.30;94966.00;;;;7387079;19;20133;-79
2024/01/20 08:32:03;;;;;;;6.13;4.07;;;;;-1.10;94974.00;;;;7393686;19;20164;-81
2024/01/20 08:34:37;;;;;;;6.07;3.80;;;;;-0.80;94978.00;;;;7393074;19;20152;-81
2024/01/20 08:37:04;;;;;;;4.53;3.20;;;;;-0.90;94977.00;;;;7391887;19;20145;-81
2024/01/20 08:39:32;;;;;;;4.90;3.43;;;;;-0.70;94986.00;;;;7393404;19;20639;-82
2024/01/20 08:42:07;;;;;;;4.07;2.90;;;;;-0.80;94997.00;;;;7393659;19;20502;-82
2024/01/20 08:44:41;;;;;;;4.00;3.30;;;;;-0.20;94983.00;;;;7390743;19;20197;-80
2024/01/20 08:47:09;;;;;;;5.20;3.13;;;;;-0.50;94986.00;;;;7391417;19;20149;-82
2024/01/20 08:49:36;;;;;;;4.53;2.13;;;;;-0.40;94990.00;;;;7391066;19;20125;-80
2024/01/20 08:52:17;;;;;;;4.00;2.30;;;;;0.40;95002.00;;;;7391841;19;20156;-80
2024/01/20 08:54:45;;;;;;;4.93;2.17;;;;;0.40;95002.00;;;;7392073;19;20136;-80
2024/01/20 08:57:19;;;;;;;3.03;2.20;;;;;0.40;95002.00;;;;7391699;19;20223;-81
2024/01/20 08:59:54;;;;;;;3.57;2.27;;;;;1.40;94998.00;;;;7392772;19;20148;-80
2024/01/20 09:02:29;;;;;;;4.10;2.37;;;;;1.30;94990.00;;;;7390135;19;20140;-79
2024/01/20 09:04:57;;;;;;;1.90;1.40;;;;;1.90;94994.00;;;;7391293;19;20140;-80
2024/01/20 09:07:31;;;;;;;1.47;1.20;;;;;2.00;94990.00;;;;7393311;19;20584;-80
2024/01/20 09:10:06;;;;;;;2.40;1.53;;;;;2.50;94995.00;;;;7394108;19;20466;-81
2024/01/20 09:12:42;;;;;;;2.03;1.50;;;;;2.60;94995.00;;;;7392219;19;20156;-79
2024/01/20 09:15:11;;;;;;;2.60;1.87;;;;;2.80;95003.00;;;;7391537;19;21453;-82
2024/01/20 09:17:45;;;;;;;3.63;1.87;;;;;3.60;95005.00;;;;7391738;19;20128;-80
2024/01/20 09:20:19;;;;;;;2.63;1.77;;;;;3.60;94998.00;;;;7392312;19;23816;-81
2024/01/20 09:22:53;;;;;;;3.43;2.23;;;;;3.00;95012.00;;;;7391851;19;20140;-80
2024/01/20 09:25:21;;;;;;;4.57;2.03;;;;;3.80;95012.00;;;;7392472;19;20157;-78
2024/01/20 09:27:55;;;;;;;3.50;1.90;;;;;3.70;95011.00;;;;7391416;19;20128;-80
2024/01/20 09:30:29;;;;;;;3.33;2.03;;;;;4.00;95015.00;;;;7391011;19;20145;-80
2024/01/20 09:33:07;;;;;;;3.17;2.23;;;;;4.20;95020.00;;;;7390539;19;20223;-81
2024/01/20 09:35:35;;;;;;;3.97;2.80;;;;;5.00;95018.00;;;;7391495;19;20140;-81
2024/01/20 09:38:03;;;;;;;3.80;2.20;;;;;5.40;95038.00;;;;7389481;19;20157;-80
2024/01/20 09:40:37;;;;;;;3.67;2.50;;;;;5.10;95032.00;;;;7389715;19;20612;-80
2024/01/20 09:43:06;;;;;;;5.17;3.00;;;;;4.80;95041.00;;;;7392554;19;20176;-80
2024/01/20 09:45:42;;;;;;;4.30;3.00;;;;;5.30;95041.00;;;;7392340;19;20135;-79
2024/01/20 09:48:12;;;;;;;4.53;3.00;;;;;5.10;95046.00;;;;7391702;19;20163;-81
2024/01/20 09:50:53;;;;;;;9.20;5.20;;;;;5.50;95047.00;;;;7400536;19;20173;-81
2024/01/20 09:53:21;;;;;;;9.40;6.07;;;;;5.30;95044.00;;;;7391598;19;20250;-81
2024/01/20 09:55:56;;;;;;;8.47;4.87;;;;;4.90;95047.00;;;;7389757;19;20503;-80
2024/01/20 09:58:26;;;;;;;6.47;4.77;;;;;4.20;95052.00;;;;7390032;19;20585;-81
2024/01/20 10:01:03;;;;;;;7.20;5.03;;;;;4.20;95057.00;;;;7389221;19;20504;-81
2024/01/20 10:03:34;;;;;;;11.03;5.87;;;;;4.70;95059.00;;;;7389285;19;20208;-82
2024/01/20 10:06:08;;;;;;;7.70;6.17;;;;;4.70;95059.00;;;;7390170;19;20151;-81
2024/01/20 10:08:36;;;;;;;7.87;5.83;;;;;5.00;95065.00;;;;7392058;19;20589;-83
2024/01/20 10:11:10;;;;;;;8.73;6.30;;;;;4.60;95070.00;;;;7390597;19;20133;-83
2024/01/20 10:13:37;;;;;;;9.00;6.50;;;;;4.20;95067.00;;;;7390482;19;20141;-79
2024/01/20 10:16:12;;;;;;;9.00;6.67;;;;;4.90;95071.00;;;;7391099;19;20197;-81
2024/01/20 10:18:47;;;;;;;8.83;6.77;;;;;4.80;95072.00;;;;7389763;19;20216;-80
2024/01/20 10:21:21;;;;;;;15.67;7.70;;;;;3.90;95074.00;;;;7390916;19;20552;-80
2024/01/20 10:23:56;;;;;;;8.80;6.80;;;;;4.90;95075.00;;;;7392316;19;20149;-81
2024/01/20 10:26:25;;;;;;;8.43;6.50;;;;;4.90;95075.00;;;;7391719;19;20786;-81
2024/01/20 10:29:00;;;;;;;10.30;7.37;;;;;4.60;95084.00;;;;7392386;19;20156;-79
2024/01/20 10:31:31;;;;;;;11.30;6.70;;;;;3.80;95078.00;;;;7389693;19;20145;-80
2024/01/20 10:34:05;;;;;;;9.70;6.53;;;;;4.50;95085.00;;;;7389124;19;20638;-78
2024/01/20 10:36:33;;;;;;;11.17;6.40;;;;;4.80;95087.00;;;;7389570;19;20555;-81
2024/01/20 10:39:15;;;;;;;11.03;7.70;;;;;4.90;95083.00;;;;7389014;19;20635;-81
2024/01/20 10:41:56;;;;;;;9.83;6.77;;;;;5.30;95090.00;;;;7389123;19;20487;-81
2024/01/20 10:44:27;;;;;;;11.43;7.37;;;;;4.00;95090.00;;;;7388483;19;20196;-81
2024/01/20 10:47:11;;;;;;;11.70;7.77;;;;;5.00;95066.00;;;;7388188;19;20161;-80
2024/01/20 10:49:43;;;;;;;10.83;7.53;;;;;3.90;95078.00;;;;7389631;19;20172;-80
2024/01/20 10:52:24;;;;;;;8.70;6.77;;;;;4.10;95074.00;;;;7386232;19;20185;-79
2024/01/20 10:54:58;;;;;;;9.07;6.77;;;;;4.00;95081.00;;;;7390485;19;20137;-79
2024/01/20 10:57:33;;;;;;;8.93;7.33;;;;;3.80;95082.00;;;;7389062;19;20608;-80
2024/01/20 11:00:04;;;;;;;8.17;6.50;;;;;4.60;95084.00;;;;7390154;19;20623;-81
2024/01/20 11:02:39;;;;;;;12.07;6.93;;;;;4.60;95088.00;;;;7389091;19;20133;-79
2024/01/20 11:05:25;;;;;;;11.87;6.93;;;;;3.90;95085.00;;;;7389070;19;20220;-81
2024/01/20 11:08:08;;;;;;;8.67;6.60;;;;;4.40;95084.00;;;;7390738;19;20640;-82
2024/01/20 11:10:45;;;;;;;9.90;6.97;;;;;4.70;95075.00;;;;7390138;19;20148;-80
2024/01/20 11:13:23;;;;;;;9.03;6.10;;;;;4.20;95079.00;;;;7389003;19;20149;-80
2024/01/20 11:15:51;;;;;;;8.53;6.13;;;;;4.60;95086.00;;;;7389848;19;20535;-81
2024/01/20 11:18:26;;;;;;;8.43;5.83;;;;;4.70;95077.00;;;;7389473;19;20214;-80
2024/01/20 11:21:02;;;;;;;9.60;5.90;;;;;5.40;95078.00;;;;7388848;19;20144;-80
2024/01/20 11:23:38;;;;;;;8.23;6.60;;;;;5.60;95073.00;;;;7387660;19;20135;-79
2024/01/20 11:26:11;;;;;;;8.13;5.73;;;;;5.20;95069.00;;;;7387982;19;20604;-77
2024/01/20 11:28:47;;;;;;;8.83;5.60;;;;;4.50;95078.00;;;;7382508;19;20915;-78
2024/01/20 11:31:25;;;;;;;7.07;5.33;;;;;5.10;95075.00;;;;7384394;19;20152;-79
2024/01/20 11:34:01;;;;;;;7.63;5.33;;;;;5.00;95068.00;;;;7386701;19;20145;-80
2024/01/20 11:36:32;;;;;;;9.17;5.20;;;;;5.00;95063.00;;;;7384231;19;20145;-80
2024/01/20 11:39:07;;;;;;;7.63;5.50;;;;;5.10;95066.00;;;;7383464;19;20148;-80
2024/01/20 11:41:41;;;;;;;7.30;5.13;;;;;5.10;95054.00;;;;7385157;19;20607;-79
2024/01/20 11:44:20;;;;;;;9.40;5.63;;;;;5.50;95043.00;;;;7384339;19;20203;-83
2024/01/20 11:46:48;;;;;;;9.50;6.23;;;;;5.60;95056.00;;;;7383980;19;20133;-79
2024/01/20 11:49:23;;;;;;;7.57;5.00;;;;;6.20;95041.00;;;;7384652;19;20262;-77
2024/01/20 11:51:57;;;;;;;8.77;5.67;;;;;5.50;95030.00;;;;7383570;19;20180;-78
2024/01/20 11:54:32;;;;;;;7.07;5.40;;;;;5.70;95026.00;;;;7383352;19;20161;-80
2024/01/20 11:57:05;;;;;;;8.43;6.00;;;;;5.30;95021.00;;;;7382399;19;21287;-82
2024/01/20 11:59:40;;;;;;;8.93;5.83;;;;;5.50;95030.00;;;;7383762;19;20178;-81
2024/01/20 12:02:15;;;;;;;7.17;5.73;;;;;5.60;95020.00;;;;7382334;19;20267;-79
2024/01/20 12:04:49;;;;;;;9.70;5.63;;;;;6.00;95010.00;;;;7383893;19;20132;-83
2024/01/20 12:07:19;;;;;;;8.30;5.80;;;;;5.70;95015.00;;;;7388925;19;20494;-80
2024/01/20 12:10:19;;;;;;;8.97;6.03;;;;;4.80;95016.00;;;;7389248;19;20163;-81
2024/01/20 12:12:55;;;;;;;7.63;5.37;;;;;4.80;94996.00;;;;7388982;19;20707;-78
2024/01/20 12:15:42;;;;;;;8.53;5.20;;;;;4.80;95002.00;;;;7389935;19;20216;-82
2024/01/20 12:18:09;;;;;;;6.93;5.23;;;;;4.90;94997.00;;;;7393557;19;20507;-79
2024/01/20 12:20:45;;;;;;;7.23;5.10;;;;;5.20;95004.00;;;;7390756;19;20583;-79
2024/01/20 12:23:23;;;;;;;6.37;5.07;;;;;5.70;94999.00;;;;7389452;19;20132;-80
2024/01/20 12:26:00;;;;;;;10.00;5.50;;;;;6.00;95004.00;;;;7389367;19;20595;-81
2024/01/20 12:28:28;;;;;;;10.67;5.83;;;;;6.00;94999.00;;;;7389028;19;20140;-80
2024/01/20 12:30:57;;;;;;;7.57;4.77;;;;;6.50;95000.00;;;;7389069;19;20184;-79
2024/01/20 12:33:32;;;;;;;6.87;4.20;;;;;5.10;94997.00;;;;7392006;19;20151;-82
2024/01/20 12:36:06;;;;;;;7.40;5.10;;;;;5.20;94995.00;;;;7391412;19;20137;-82
2024/01/20 12:38:41;;;;;;;7.43;4.67;;;;;5.60;94998.00;;;;7392805;19;20712;-84